Time;durP1;ratioP1;P1;durP2;ratioP2;P2;SDS_P1;SDS_P2;PMS_P1;PMS_P2;Temp;Humidity;BMP_temperature;BMP_pressure;BME280_temperature;BME280_humidity;BME280_pressure;Samples;Min_cycle;Max_cycle;Signal;HPM_P1;HPM_P2
2023/09/12 00:01:33;;;;;;;2.75;1.02;;;19.30;99.90;;;;;;5093934;28;20055;-61
2023/09/12 00:03:59;;;;;;;0.82;0.73;;;19.20;99.90;;;;;;5093724;28;20048;-61
2023/09/12 00:06:25;;;;;;;1.08;1.08;;;19.40;99.90;;;;;;5093844;28;20060;-61
2023/09/12 00:08:53;;;;;;;2.05;1.50;;;19.10;99.90;;;;;;5094084;28;20066;-62
2023/09/12 00:11:19;;;;;;;3.30;1.25;;;19.40;99.90;;;;;;5093713;28;20044;-61
2023/09/12 00:13:45;;;;;;;1.65;1.30;;;18.90;99.90;;;;;;5093719;28;20040;-61
2023/09/12 00:16:11;;;;;;;0.63;0.63;;;19.40;99.90;;;;;;5093554;28;20048;-61
2023/09/12 00:18:38;;;;;;;1.45;1.20;;;18.80;99.90;;;;;;5093503;28;20052;-62
2023/09/12 00:21:04;;;;;;;1.58;1.48;;;19.20;99.90;;;;;;5093560;28;20097;-61
2023/09/12 00:23:30;;;;;;;1.40;1.30;;;19.30;99.90;;;;;;5093687;28;20048;-62
2023/09/12 00:25:57;;;;;;;1.30;1.15;;;19.30;99.90;;;;;;5093441;28;20052;-62
2023/09/12 00:28:22;;;;;;;2.55;1.73;;;19.30;99.90;;;;;;5093142;28;20643;-61
2023/09/12 00:30:48;;;;;;;0.82;0.82;;;19.30;99.90;;;;;;5093324;28;20139;-62
2023/09/12 00:33:14;;;;;;;0.60;0.60;;;19.00;99.90;;;;;;5093309;28;20104;-62
2023/09/12 00:35:40;;;;;;;0.75;0.45;;;19.00;99.90;;;;;;5093297;28;20055;-61
2023/09/12 00:38:08;;;;;;;1.20;1.00;;;19.20;99.90;;;;;;5092225;28;20063;-61
2023/09/12 00:40:34;;;;;;;1.42;1.33;;;19.20;99.90;;;;;;5093251;28;20131;-61
2023/09/12 00:42:59;;;;;;;1.40;1.15;;;19.10;99.90;;;;;;5093173;28;20139;-62
2023/09/12 00:45:25;;;;;;;2.58;1.63;;;18.90;99.90;;;;;;5093125;28;20089;-61
2023/09/12 00:47:52;;;;;;;1.17;1.08;;;18.80;99.90;;;;;;5093036;28;20089;-62
2023/09/12 00:50:20;;;;;;;0.73;0.73;;;19.10;99.90;;;;;;5093024;28;20055;-61
2023/09/12 00:52:47;;;;;;;1.60;1.50;;;18.60;99.90;;;;;;5092995;28;20044;-61
2023/09/12 00:55:13;;;;;;;1.73;1.63;;;18.90;99.90;;;;;;5092914;28;20044;-62
2023/09/12 00:57:40;;;;;;;0.93;0.88;;;18.80;99.90;;;;;;5092880;28;20096;-61
2023/09/12 01:00:11;;;;;;;1.75;0.98;;;18.80;99.90;;;;;;5092886;28;20055;-61
2023/09/12 01:02:43;;;;;;;1.08;0.95;;;18.90;99.90;;;;;;5092868;28;20043;-60
2023/09/12 01:05:11;;;;;;;2.30;2.15;;;18.80;99.90;;;;;;5093069;28;20064;-61
2023/09/12 01:07:37;;;;;;;4.65;1.52;;;18.90;99.90;;;;;;5093080;28;20048;-61
2023/09/12 01:10:05;;;;;;;1.55;1.45;;;18.70;99.90;;;;;;5093069;28;20054;-61
2023/09/12 01:12:31;;;;;;;1.63;1.52;;;18.90;99.90;;;;;;5091253;28;20116;-62
2023/09/12 01:14:56;;;;;;;4.38;1.40;;;18.40;99.90;;;;;;5092547;28;20047;-61
2023/09/12 01:17:26;;;;;;;4.15;1.23;;;18.70;99.90;;;;;;5092504;28;20048;-62
2023/09/12 01:19:53;;;;;;;1.55;1.45;;;18.70;99.90;;;;;;5092491;28;20043;-62
2023/09/12 01:22:39;;;;;;;1.85;1.17;;;18.60;99.90;;;;;;5092427;28;20039;-62
2023/09/12 01:25:23;;;;;;;;;;;18.90;99.90;;;;;;5092865;28;20044;-61
2023/09/12 01:27:51;;;;;;;2.75;1.50;;;18.80;99.90;;;;;;5092142;28;20383;-61
2023/09/12 01:30:22;;;;;;;2.28;1.25;;;18.40;99.90;;;;;;5091908;28;20074;-61
2023/09/12 01:32:49;;;;;;;0.88;0.88;;;18.60;99.90;;;;;;5092263;28;20457;-61
2023/09/12 01:35:15;;;;;;;3.55;0.98;;;18.50;99.90;;;;;;5091892;28;20496;-61
2023/09/12 01:37:41;;;;;;;1.77;1.08;;;18.80;99.90;;;;;;5092194;28;20052;-62
2023/09/12 01:40:07;;;;;;;0.70;0.70;;;18.20;99.90;;;;;;5092141;28;20143;-61
2023/09/12 01:42:53;;;;;;;0.90;0.90;;;18.50;99.90;;;;;;5090847;28;20090;-61
2023/09/12 01:45:19;;;;;;;0.70;0.70;;;18.80;99.90;;;;;;5092425;28;20523;-62
2023/09/12 01:47:47;;;;;;;10.05;1.48;;;18.80;99.90;;;;;;5092109;28;20117;-61
2023/09/12 01:50:13;;;;;;;0.50;0.50;;;18.70;99.90;;;;;;5092010;28;20524;-62
2023/09/12 01:52:40;;;;;;;1.40;1.30;;;18.80;99.90;;;;;;5092157;28;20083;-61
2023/09/12 01:55:09;;;;;;;2.30;1.98;;;18.30;99.90;;;;;;5091930;28;20135;-61
2023/09/12 01:57:35;;;;;;;1.50;1.15;;;18.90;99.90;;;;;;5091980;28;20078;-61
2023/09/12 02:00:01;;;;;;;2.95;1.67;;;18.30;99.90;;;;;;5091838;28;20044;-61
2023/09/12 02:02:27;;;;;;;1.23;0.98;;;18.20;99.90;;;;;;5091494;28;20700;-61
2023/09/12 02:05:20;;;;;;;2.20;1.15;;;18.30;99.90;;;;;;5091873;28;20117;-61
2023/09/12 02:07:47;;;;;;;0.82;0.82;;;18.40;99.90;;;;;;5090460;28;20044;-61
2023/09/12 02:10:13;;;;;;;1.38;0.82;;;18.00;99.90;;;;;;5091737;28;20173;-61
2023/09/12 02:12:39;;;;;;;1.30;0.98;;;18.20;99.90;;;;;;5091639;28;20052;-62
2023/09/12 02:15:05;;;;;;;1.27;1.15;;;18.10;99.90;;;;;;5091659;28;20083;-61
2023/09/12 02:17:31;;;;;;;5.63;1.67;;;18.10;99.90;;;;;;5090447;28;20055;-61
2023/09/12 02:19:57;;;;;;;1.48;0.77;;;18.20;99.90;;;;;;5091642;28;20040;-61
2023/09/12 02:22:23;;;;;;;1.25;1.15;;;18.10;99.90;;;;;;5091536;28;20101;-62
2023/09/12 02:24:49;;;;;;;3.30;0.73;;;17.60;99.90;;;;;;5091582;28;20125;-61
2023/09/12 02:27:15;;;;;;;0.73;0.73;;;17.80;99.90;;;;;;5091595;28;20048;-62
2023/09/12 02:29:42;;;;;;;0.40;0.40;;;18.10;99.90;;;;;;5090546;28;20044;-62
2023/09/12 02:32:08;;;;;;;2.38;0.80;;;18.10;99.90;;;;;;5091633;28;20051;-61
2023/09/12 02:34:34;;;;;;;1.20;1.10;;;17.80;99.90;;;;;;5091600;28;20036;-61
2023/09/12 02:36:59;;;;;;;0.60;0.60;;;18.10;99.90;;;;;;5091341;28;20087;-62
2023/09/12 02:39:25;;;;;;;0.68;0.68;;;17.70;99.90;;;;;;5092171;28;20109;-62
2023/09/12 02:41:51;;;;;;;1.13;0.70;;;18.10;99.90;;;;;;5095944;28;20492;-62
2023/09/12 02:44:17;;;;;;;1.33;1.08;;;17.60;99.90;;;;;;5095365;28;20040;-61
2023/09/12 02:46:42;;;;;;;0.55;0.55;;;17.60;99.90;;;;;;5095417;28;20051;-61
2023/09/12 02:49:08;;;;;;;0.80;0.80;;;17.70;99.90;;;;;;5095074;28;20512;-62
2023/09/12 02:51:38;;;;;;;1.80;1.70;;;17.80;99.90;;;;;;5095314;28;20088;-61
2023/09/12 02:54:04;;;;;;;1.25;1.10;;;18.00;99.90;;;;;;5095187;28;20051;-61
2023/09/12 02:56:30;;;;;;;1.20;1.10;;;17.40;99.90;;;;;;5095226;28;20039;-61
2023/09/12 02:58:56;;;;;;;2.70;1.80;;;17.90;99.90;;;;;;5095205;28;20135;-61
2023/09/12 03:01:22;;;;;;;0.85;0.80;;;17.90;99.90;;;;;;5095154;28;20126;-62
2023/09/12 03:03:49;;;;;;;0.60;0.60;;;17.60;99.90;;;;;;5094767;28;20093;-61
2023/09/12 03:06:15;;;;;;;1.00;0.93;;;17.40;99.90;;;;;;5095027;28;20056;-61
2023/09/12 03:08:43;;;;;;;1.27;0.82;;;17.40;99.90;;;;;;5094991;28;20139;-61
2023/09/12 03:11:09;;;;;;;1.45;0.85;;;17.60;99.90;;;;;;5094921;28;20091;-61
2023/09/12 03:13:37;;;;;;;1.05;1.05;;;17.60;99.90;;;;;;5094888;28;20430;-61
2023/09/12 03:16:03;;;;;;;1.02;0.75;;;17.10;99.90;;;;;;5094930;28;20050;-61
2023/09/12 03:18:29;;;;;;;3.33;1.17;;;17.60;99.90;;;;;;5094822;28;20051;-61
2023/09/12 03:20:55;;;;;;;1.63;1.02;;;17.60;99.90;;;;;;5094709;28;20399;-60
2023/09/12 03:23:21;;;;;;;0.88;0.88;;;17.60;99.90;;;;;;5094899;28;20365;-61
2023/09/12 03:25:46;;;;;;;1.33;0.93;;;17.50;99.90;;;;;;5094670;28;20071;-61
2023/09/12 03:28:12;;;;;;;1.02;0.80;;;17.60;99.90;;;;;;5094615;28;20052;-61
2023/09/12 03:30:38;;;;;;;0.63;0.60;;;17.80;99.90;;;;;;5094509;28;20056;-61
2023/09/12 03:33:05;;;;;;;2.88;1.25;;;17.50;99.90;;;;;;5094518;28;20043;-61
2023/09/12 03:35:33;;;;;;;1.00;1.00;;;17.50;99.90;;;;;;5094497;28;20040;-61
2023/09/12 03:37:59;;;;;;;1.60;1.23;;;17.60;99.90;;;;;;5094388;28;20082;-62
2023/09/12 03:40:24;;;;;;;1.85;1.20;;;17.90;99.90;;;;;;5094419;28;20047;-61
2023/09/12 03:42:50;;;;;;;3.78;1.95;;;17.90;99.90;;;;;;5094626;28;20408;-62
2023/09/12 03:45:16;;;;;;;1.45;1.27;;;17.50;99.90;;;;;;5094401;28;20044;-61
2023/09/12 03:47:43;;;;;;;0.60;0.60;;;17.80;99.90;;;;;;5094280;28;20044;-61
2023/09/12 03:50:09;;;;;;;1.35;1.25;;;17.60;99.90;;;;;;5093163;28;20496;-62
2023/09/12 03:52:35;;;;;;;1.85;1.35;;;17.20;99.90;;;;;;5093545;28;20055;-61
2023/09/12 03:55:00;;;;;;;0.57;0.57;;;17.70;99.90;;;;;;5094328;28;20040;-61
2023/09/12 03:57:26;;;;;;;0.93;0.93;;;17.50;99.90;;;;;;5094084;28;20056;-61
2023/09/12 03:59:52;;;;;;;0.40;0.40;;;17.20;99.90;;;;;;5093984;28;20047;-61
2023/09/12 04:02:18;;;;;;;0.68;0.60;;;17.30;99.90;;;;;;5093943;28;20055;-62
2023/09/12 04:04:44;;;;;;;0.32;0.32;;;16.90;99.90;;;;;;5093456;28;20058;-62
2023/09/12 04:07:10;;;;;;;0.88;0.88;;;17.40;99.90;;;;;;5093864;28;20052;-62
2023/09/12 04:09:36;;;;;;;0.93;0.93;;;17.50;99.90;;;;;;5093794;28;20108;-61
2023/09/12 04:12:02;;;;;;;0.90;0.82;;;17.60;99.90;;;;;;5092189;28;20048;-62
2023/09/12 04:14:27;;;;;;;0.40;0.40;;;17.20;99.90;;;;;;5093695;28;20051;-61
2023/09/12 04:16:53;;;;;;;1.00;0.93;;;17.80;99.90;;;;;;5093689;28;20048;-61
2023/09/12 04:19:19;;;;;;;0.50;0.50;;;17.20;99.90;;;;;;5093690;28;20052;-62
2023/09/12 04:21:44;;;;;;;1.55;0.88;;;16.90;99.90;;;;;;5093609;28;20048;-61
2023/09/12 04:24:10;;;;;;;0.88;0.85;;;17.00;99.90;;;;;;5093498;28;20066;-61
2023/09/12 04:26:36;;;;;;;1.20;1.10;;;17.60;99.90;;;;;;5093478;28;20045;-61
2023/09/12 04:29:02;;;;;;;1.05;0.98;;;17.40;99.90;;;;;;5093443;28;20040;-61
2023/09/12 04:31:28;;;;;;;1.00;0.82;;;17.30;99.90;;;;;;5093332;28;20123;-61
2023/09/12 04:33:54;;;;;;;0.70;0.70;;;17.40;99.90;;;;;;5093386;28;20047;-60
2023/09/12 04:36:20;;;;;;;1.58;1.00;;;16.80;99.90;;;;;;5093365;28;20044;-61
2023/09/12 04:38:46;;;;;;;0.90;0.80;;;17.10;99.90;;;;;;5093613;28;20122;-61
2023/09/12 04:41:16;;;;;;;1.23;1.13;;;17.10;99.90;;;;;;5093545;28;20131;-62
2023/09/12 04:43:45;;;;;;;0.40;0.40;;;17.30;99.90;;;;;;5093199;28;20091;-62
2023/09/12 04:46:12;;;;;;;1.58;1.23;;;17.00;99.90;;;;;;5093142;28;20079;-61
2023/09/12 04:48:38;;;;;;;0.73;0.73;;;17.60;99.90;;;;;;5093156;28;20048;-61
2023/09/12 04:51:04;;;;;;;0.40;0.40;;;17.60;99.90;;;;;;5093008;28;20048;-62
2023/09/12 04:53:36;;;;;;;0.98;0.90;;;17.30;99.90;;;;;;5092647;28;20113;-62
2023/09/12 04:56:02;;;;;;;0.80;0.57;;;17.20;99.90;;;;;;5092931;28;20051;-61
2023/09/12 04:58:28;;;;;;;1.35;0.60;;;17.30;99.90;;;;;;5092918;28;20048;-61
2023/09/12 05:00:55;;;;;;;2.47;0.60;;;17.70;99.90;;;;;;5092859;28;20051;-62
2023/09/12 05:03:21;;;;;;;1.30;0.82;;;17.70;99.90;;;;;;5091854;28;20048;-62
2023/09/12 05:05:47;;;;;;;1.10;1.02;;;17.60;99.90;;;;;;5092188;28;20113;-61
2023/09/12 05:08:13;;;;;;;1.27;0.98;;;17.30;99.90;;;;;;5092733;28;20052;-62
2023/09/12 05:10:39;;;;;;;0.70;0.70;;;17.80;99.90;;;;;;5092681;28;20063;-61
2023/09/12 05:13:05;;;;;;;1.08;1.05;;;17.40;99.90;;;;;;5092268;28;20048;-63
2023/09/12 05:15:31;;;;;;;1.02;0.93;;;17.60;99.90;;;;;;5092278;28;20519;-62
2023/09/12 05:17:57;;;;;;;1.33;0.60;;;17.10;99.90;;;;;;5092485;28;20047;-61
2023/09/12 05:20:22;;;;;;;1.55;1.45;;;17.30;99.90;;;;;;5092683;28;20051;-61
2023/09/12 05:22:48;;;;;;;1.25;1.08;;;17.70;99.90;;;;;;5092323;28;20135;-61
2023/09/12 05:25:14;;;;;;;1.83;1.30;;;17.50;99.90;;;;;;5092401;28;20123;-61
2023/09/12 05:27:39;;;;;;;1.40;1.30;;;17.80;99.90;;;;;;5092253;28;20055;-61
2023/09/12 05:30:06;;;;;;;0.90;0.90;;;17.20;99.90;;;;;;5092008;28;20059;-62
2023/09/12 05:32:32;;;;;;;2.15;1.08;;;17.60;99.90;;;;;;5092230;28;20055;-62
2023/09/12 05:34:57;;;;;;;0.55;0.45;;;17.90;99.90;;;;;;5092320;28;20404;-61
2023/09/12 05:37:23;;;;;;;0.70;0.70;;;17.70;99.90;;;;;;5092191;28;20036;-62
2023/09/12 05:39:48;;;;;;;0.65;0.65;;;18.00;99.90;;;;;;5092674;28;20058;-61
2023/09/12 05:42:20;;;;;;;1.45;1.02;;;17.50;99.90;;;;;;5092229;28;20540;-61
2023/09/12 05:44:48;;;;;;;1.23;0.52;;;17.50;99.90;;;;;;5092083;28;20408;-62
2023/09/12 05:47:14;;;;;;;0.68;0.68;;;17.80;99.90;;;;;;5092329;28;20042;-62
2023/09/12 05:49:40;;;;;;;1.10;0.98;;;17.30;99.90;;;;;;5092025;28;20044;-61
2023/09/12 05:52:06;;;;;;;1.05;0.95;;;17.10;99.90;;;;;;5091896;28;20070;-62
2023/09/12 05:54:31;;;;;;;0.40;0.40;;;17.20;99.90;;;;;;5091874;28;20043;-61
2023/09/12 05:56:57;;;;;;;5.72;2.15;;;18.00;99.90;;;;;;5091833;28;20055;-61
2023/09/12 05:59:23;;;;;;;0.57;0.57;;;18.10;99.90;;;;;;5091908;28;20127;-62
2023/09/12 06:01:49;;;;;;;2.10;1.08;;;18.00;99.90;;;;;;5091808;28;20435;-61
2023/09/12 06:04:14;;;;;;;0.38;0.30;;;18.10;99.90;;;;;;5091010;28;20055;-61
2023/09/12 06:06:40;;;;;;;2.88;1.58;;;17.50;99.90;;;;;;5091753;28;20055;-61
2023/09/12 06:09:06;;;;;;;3.67;2.83;;;18.20;99.90;;;;;;5091767;28;20040;-62
2023/09/12 06:11:32;;;;;;;2.15;1.60;;;18.20;99.90;;;;;;5091385;28;20139;-62
2023/09/12 06:13:57;;;;;;;1.42;1.33;;;18.20;99.90;;;;;;5091722;28;20047;-62
2023/09/12 06:16:24;;;;;;;1.60;1.17;;;18.20;99.90;;;;;;5091412;28;20447;-62
2023/09/12 06:18:49;;;;;;;3.15;2.45;;;17.50;99.90;;;;;;5091665;28;20498;-62
2023/09/12 06:21:15;;;;;;;1.60;1.05;;;17.80;99.90;;;;;;5091661;28;20048;-62
2023/09/12 06:23:41;;;;;;;1.55;1.45;;;17.60;99.90;;;;;;5091568;28;20434;-62
2023/09/12 06:26:06;;;;;;;2.40;2.20;;;18.50;99.90;;;;;;5091615;28;20044;-62
2023/09/12 06:28:32;;;;;;;3.95;1.63;;;18.20;99.90;;;;;;5091561;28;20048;-62
2023/09/12 06:30:58;;;;;;;1.88;0.65;;;18.20;99.90;;;;;;5091531;28;20048;-62
2023/09/12 06:33:26;;;;;;;1.10;1.00;;;17.80;99.90;;;;;;5091553;28;20509;-62
2023/09/12 06:35:52;;;;;;;2.03;1.92;;;17.90;99.90;;;;;;5091510;28;20068;-62
2023/09/12 06:38:19;;;;;;;0.95;0.95;;;17.70;99.90;;;;;;5091477;28;20036;-62
2023/09/12 06:40:47;;;;;;;1.15;1.02;;;18.10;99.90;;;;;;5091455;28;20044;-62
2023/09/12 06:43:13;;;;;;;0.95;0.65;;;18.00;99.90;;;;;;5091418;28;20040;-61
2023/09/12 06:45:40;;;;;;;3.63;2.42;;;18.60;99.90;;;;;;5091409;28;20044;-61
2023/09/12 06:48:06;;;;;;;0.88;0.70;;;18.90;99.90;;;;;;5091456;28;20048;-62
2023/09/12 06:50:32;;;;;;;1.17;0.88;;;17.80;99.90;;;;;;5091394;28;20047;-62
2023/09/12 06:52:57;;;;;;;1.27;0.90;;;18.40;99.90;;;;;;5091552;28;20048;-61
2023/09/12 06:55:24;;;;;;;0.73;0.73;;;18.40;99.90;;;;;;5091658;28;20130;-62
2023/09/12 06:57:50;;;;;;;3.70;0.93;;;18.40;99.90;;;;;;5091548;28;20105;-62
2023/09/12 07:00:16;;;;;;;1.05;1.00;;;18.70;99.90;;;;;;5091426;28;20040;-62
2023/09/12 07:02:42;;;;;;;2.63;1.70;;;18.20;99.90;;;;;;5091259;28;20108;-61
2023/09/12 07:05:08;;;;;;;2.33;2.13;;;18.60;99.90;;;;;;5091217;28;20482;-63
2023/09/12 07:07:34;;;;;;;2.72;1.80;;;18.50;99.90;;;;;;5091171;28;20084;-61
2023/09/12 07:10:00;;;;;;;1.20;1.08;;;18.30;99.90;;;;;;5089964;28;20071;-62
2023/09/12 07:12:28;;;;;;;1.25;0.95;;;18.90;99.90;;;;;;5091211;28;20040;-62
2023/09/12 07:14:55;;;;;;;5.70;2.03;;;18.40;99.90;;;;;;5091202;28;20032;-62
2023/09/12 07:17:21;;;;;;;2.42;1.40;;;18.30;99.90;;;;;;5090848;28;20569;-62
2023/09/12 07:19:47;;;;;;;1.90;1.60;;;18.90;99.90;;;;;;5091116;28;20094;-62
2023/09/12 07:22:13;;;;;;;1.67;1.25;;;18.70;99.90;;;;;;5091040;28;20040;-61
2023/09/12 07:24:39;;;;;;;1.48;1.38;;;18.90;99.90;;;;;;5091006;28;20047;-61
2023/09/12 07:27:05;;;;;;;1.33;1.00;;;19.00;99.90;;;;;;5092302;28;20052;-61
2023/09/12 07:29:30;;;;;;;1.55;1.23;;;19.40;99.90;;;;;;5093632;28;20044;-62
2023/09/12 07:31:56;;;;;;;2.50;1.60;;;19.00;99.90;;;;;;5094351;28;20052;-62
2023/09/12 07:34:23;;;;;;;1.05;0.95;;;18.30;99.90;;;;;;5093572;28;20051;-64
2023/09/12 07:36:51;;;;;;;1.75;1.55;;;19.10;99.90;;;;;;5094663;28;20056;-62
2023/09/12 07:39:17;;;;;;;2.63;1.98;;;19.40;99.90;;;;;;5094488;28;20048;-62
2023/09/12 07:41:43;;;;;;;2.38;2.05;;;18.90;99.90;;;;;;5094402;28;20484;-63
2023/09/12 07:44:11;;;;;;;3.28;1.90;;;19.10;99.90;;;;;;5094271;28;20040;-62
2023/09/12 07:46:38;;;;;;;6.93;2.28;;;18.90;99.90;;;;;;5094275;28;20820;-62
2023/09/12 07:49:03;;;;;;;1.75;1.63;;;19.40;99.90;;;;;;5094267;28;20073;-62
2023/09/12 07:51:29;;;;;;;5.15;3.13;;;19.60;99.90;;;;;;5094206;28;20048;-63
2023/09/12 07:53:55;;;;;;;4.97;2.55;;;19.40;99.90;;;;;;5094465;28;20036;-63
2023/09/12 07:56:20;;;;;;;2.80;1.52;;;19.00;99.90;;;;;;5094067;28;20048;-62
2023/09/12 07:58:47;;;;;;;1.13;1.08;;;19.40;99.90;;;;;;5092880;28;20461;-62
2023/09/12 08:01:12;;;;;;;1.90;1.80;;;19.10;99.90;;;;;;5094107;28;20064;-63
2023/09/12 08:03:39;;;;;;;5.13;2.97;;;18.60;99.90;;;;;;5094171;28;20066;-63
2023/09/12 08:06:05;;;;;;;2.75;2.22;;;19.50;99.90;;;;;;5094271;28;20064;-62
2023/09/12 08:08:31;;;;;;;2.85;2.60;;;19.10;99.90;;;;;;5094142;28;20044;-63
2023/09/12 08:10:57;;;;;;;2.65;1.48;;;18.80;99.90;;;;;;5094217;28;20044;-63
2023/09/12 08:13:29;;;;;;;5.57;1.75;;;19.60;99.90;;;;;;5093810;28;20093;-63
2023/09/12 08:15:56;;;;;;;3.15;1.42;;;18.60;99.90;;;;;;5093837;28;20044;-63
2023/09/12 08:18:26;;;;;;;1.85;1.52;;;19.30;99.90;;;;;;5093436;28;20510;-62
2023/09/12 08:20:51;;;;;;;5.95;2.88;;;19.90;99.90;;;;;;5093311;28;20126;-63
2023/09/12 08:23:17;;;;;;;2.17;1.92;;;18.80;99.90;;;;;;5093833;28;20139;-63
2023/09/12 08:25:43;;;;;;;5.93;3.67;;;19.00;99.90;;;;;;5093552;28;20093;-64
2023/09/12 08:28:08;;;;;;;3.63;2.05;;;19.30;99.90;;;;;;5093455;28;20127;-63
2023/09/12 08:30:34;;;;;;;2.10;2.00;;;19.80;99.90;;;;;;5093432;28;20044;-63
2023/09/12 08:33:03;;;;;;;4.10;2.78;;;19.50;99.90;;;;;;5093431;28;20135;-63
2023/09/12 08:35:28;;;;;;;3.28;2.63;;;20.30;99.90;;;;;;5093352;28;20059;-64
2023/09/12 08:37:54;;;;;;;3.40;1.70;;;20.00;99.90;;;;;;5093158;28;20081;-63
2023/09/12 08:40:20;;;;;;;2.67;2.20;;;20.00;99.90;;;;;;5093248;28;20105;-63
2023/09/12 08:42:47;;;;;;;2.22;2.13;;;19.60;99.90;;;;;;5093128;28;20090;-63
2023/09/12 08:45:17;;;;;;;3.05;2.47;;;19.70;99.90;;;;;;5093202;28;20066;-63
2023/09/12 08:47:44;;;;;;;2.72;1.67;;;20.20;99.90;;;;;;5093124;28;20097;-63
2023/09/12 08:50:16;;;;;;;5.35;2.10;;;19.90;99.90;;;;;;5093060;28;20486;-63
2023/09/12 08:52:43;;;;;;;2.28;1.20;;;20.00;99.90;;;;;;5093065;28;20112;-63
2023/09/12 08:55:10;;;;;;;3.35;2.42;;;19.90;99.90;;;;;;5092947;28;20079;-63
2023/09/12 08:57:39;;;;;;;2.72;2.53;;;20.20;99.90;;;;;;5092592;28;20488;-64
2023/09/12 09:00:06;;;;;;;2.78;2.22;;;19.60;99.90;;;;;;5092831;28;20044;-63
2023/09/12 09:02:34;;;;;;;4.97;2.75;;;19.80;99.90;;;;;;5092882;28;20056;-64
2023/09/12 09:05:04;;;;;;;6.55;3.17;;;20.20;99.90;;;;;;5092577;28;20060;-63
2023/09/12 09:07:41;;;;;;;3.03;2.65;;;20.50;99.90;;;;;;5092761;28;20113;-64
2023/09/12 09:10:13;;;;;;;4.38;2.60;;;21.20;99.90;;;;;;5092723;28;20059;-64
2023/09/12 09:12:40;;;;;;;2.05;1.88;;;20.90;99.90;;;;;;5092644;28;20047;-64
2023/09/12 09:15:26;;;;;;;8.13;3.97;;;21.30;99.90;;;;;;5092619;28;20122;-63
2023/09/12 09:17:56;;;;;;;3.63;1.52;;;20.40;99.90;;;;;;5092588;28;20102;-64
2023/09/12 09:20:34;;;;;;;6.25;2.75;;;20.70;99.90;;;;;;5092529;28;20468;-63
2023/09/12 09:23:10;;;;;;;4.40;2.85;;;21.00;99.90;;;;;;5092494;28;20833;-64
2023/09/12 09:25:40;;;;;;;9.82;3.15;;;20.70;99.90;;;;;;5092537;28;20102;-63
2023/09/12 09:28:17;;;;;;;4.85;3.50;;;20.70;99.90;;;;;;5092670;28;20043;-63
2023/09/12 09:30:45;;;;;;;1.90;1.52;;;21.40;99.90;;;;;;5092537;28;20051;-63
2023/09/12 09:33:12;;;;;;;4.13;3.25;;;21.30;99.90;;;;;;5092310;28;20040;-64
2023/09/12 09:35:40;;;;;;;5.15;2.47;;;21.30;99.90;;;;;;5092230;28;20044;-63
2023/09/12 09:38:07;;;;;;;3.50;3.17;;;21.60;99.90;;;;;;5092271;28;20515;-63
2023/09/12 09:40:34;;;;;;;2.42;2.33;;;21.20;99.90;;;;;;5092177;28;20048;-64
2023/09/12 09:43:01;;;;;;;1.73;1.60;;;21.20;99.90;;;;;;5092092;28;20048;-64
2023/09/12 09:45:29;;;;;;;4.00;3.22;;;21.30;99.90;;;;;;5092035;28;20484;-64
2023/09/12 09:48:07;;;;;;;1.83;1.55;;;21.70;99.90;;;;;;5091999;28;20054;-64
2023/09/12 09:50:37;;;;;;;2.95;2.33;;;22.00;99.90;;;;;;5091538;28;20059;-63
2023/09/12 09:53:05;;;;;;;3.08;1.73;;;21.80;99.90;;;;;;5092018;28;20044;-64
2023/09/12 09:55:32;;;;;;;1.75;1.65;;;22.00;99.90;;;;;;5091927;28;20140;-64
2023/09/12 09:57:58;;;;;;;4.57;2.28;;;22.50;99.90;;;;;;5091974;28;20059;-63
2023/09/12 10:00:24;;;;;;;1.80;1.70;;;22.40;99.90;;;;;;5091833;28;20044;-64
2023/09/12 10:02:54;;;;;;;3.67;2.08;;;22.40;99.90;;;;;;5091422;28;20471;-63
2023/09/12 10:05:21;;;;;;;1.60;1.50;;;22.10;99.90;;;;;;5091748;28;20072;-64
2023/09/12 10:07:51;;;;;;;3.50;1.50;;;22.50;99.90;;;;;;5091840;28;20058;-64
2023/09/12 10:10:18;;;;;;;1.77;1.33;;;22.30;99.90;;;;;;5091789;28;20087;-64
2023/09/12 10:12:50;;;;;;;1.80;0.90;;;22.50;99.90;;;;;;5091748;28;20052;-63
2023/09/12 10:15:19;;;;;;;1.52;1.42;;;22.50;99.90;;;;;;5091456;28;20413;-64
2023/09/12 10:17:48;;;;;;;1.67;1.58;;;22.30;99.90;;;;;;5091706;28;20193;-64
2023/09/12 10:20:21;;;;;;;1.17;0.85;;;22.40;99.90;;;;;;5091648;28;20123;-63
2023/09/12 10:23:11;;;;;;;4.78;1.55;;;22.60;99.90;;;;;;5091650;28;20055;-64
2023/09/12 10:25:37;;;;;;;4.20;1.95;;;22.20;99.90;;;;;;5091939;28;20048;-64
2023/09/12 10:28:06;;;;;;;1.20;1.05;;;22.60;99.90;;;;;;5091490;28;20051;-64
2023/09/12 10:30:34;;;;;;;1.55;0.90;;;22.30;99.90;;;;;;5091558;28;20056;-65
2023/09/12 10:33:03;;;;;;;2.45;2.25;;;22.40;99.90;;;;;;5091512;28;20052;-64
2023/09/12 10:35:32;;;;;;;3.15;1.98;;;22.40;99.90;;;;;;5091534;28;20464;-64
2023/09/12 10:38:01;;;;;;;2.40;1.48;;;22.70;99.90;;;;;;5091545;28;20051;-64
2023/09/12 10:40:29;;;;;;;0.98;0.98;;;22.30;99.90;;;;;;5091434;28;20412;-64
2023/09/12 10:42:57;;;;;;;1.58;1.45;;;22.90;99.90;;;;;;5091419;28;20048;-64
2023/09/12 10:45:23;;;;;;;2.25;1.52;;;22.60;99.90;;;;;;5091386;28;20087;-63
2023/09/12 10:47:48;;;;;;;0.82;0.82;;;23.00;99.90;;;;;;5091397;28;20086;-63
2023/09/12 10:50:14;;;;;;;2.55;1.05;;;22.90;99.90;;;;;;5091390;28;20514;-64
2023/09/12 10:52:41;;;;;;;2.53;0.93;;;23.00;99.90;;;;;;5091422;28;20070;-63
2023/09/12 10:55:08;;;;;;;0.75;0.75;;;23.30;99.90;;;;;;5091356;28;20050;-63
2023/09/12 10:57:34;;;;;;;1.50;1.20;;;22.90;99.90;;;;;;5091442;28;20467;-64
2023/09/12 11:00:10;;;;;;;2.42;0.82;;;22.40;99.90;;;;;;5091339;28;20048;-63
2023/09/12 11:02:43;;;;;;;1.08;1.02;;;22.40;99.90;;;;;;5092335;28;20048;-63
2023/09/12 11:05:27;;;;;;;2.03;1.10;;;22.50;99.90;;;;;;5094789;28;20094;-62
2023/09/12 11:08:00;;;;;;;0.68;0.68;;;22.50;99.90;;;;;;5095208;28;20048;-63
2023/09/12 11:10:27;;;;;;;3.20;1.30;;;22.20;99.90;;;;;;5095176;28;20040;-64
2023/09/12 11:12:54;;;;;;;0.60;0.60;;;21.80;99.90;;;;;;5095241;28;20051;-63
2023/09/12 11:15:21;;;;;;;1.00;0.75;;;22.40;99.90;;;;;;5095371;28;20078;-64
2023/09/12 11:17:49;;;;;;;1.00;1.00;;;22.40;99.90;;;;;;5095123;28;20048;-62
2023/09/12 11:20:16;;;;;;;0.77;0.47;;;22.20;99.90;;;;;;5094024;28;20067;-63
2023/09/12 11:22:43;;;;;;;0.47;0.47;;;21.80;99.90;;;;;;5095064;28;20472;-62
2023/09/12 11:25:25;;;;;;;0.60;0.60;;;22.00;99.90;;;;;;5094984;28;20048;-62
2023/09/12 11:27:51;;;;;;;2.30;2.10;;;21.60;99.90;;;;;;5094995;28;20052;-62
2023/09/12 11:30:30;;;;;;;0.65;0.65;;;21.80;99.90;;;;;;5094993;28;20053;-61
2023/09/12 11:32:56;;;;;;;0.85;0.82;;;21.50;99.90;;;;;;5094978;28;20055;-62
2023/09/12 11:35:27;;;;;;;2.05;1.02;;;22.00;99.90;;;;;;5094600;28;20473;-62
2023/09/12 11:37:58;;;;;;;0.47;0.47;;;21.70;99.90;;;;;;5094618;28;20484;-62
2023/09/12 11:40:33;;;;;;;0.70;0.70;;;21.40;99.90;;;;;;5094474;28;20127;-62
2023/09/12 11:42:59;;;;;;;0.68;0.60;;;21.70;99.90;;;;;;5094481;28;20074;-62
2023/09/12 11:45:25;;;;;;;0.65;0.65;;;21.50;99.90;;;;;;5094361;28;20046;-62
2023/09/12 11:47:51;;;;;;;0.52;0.52;;;21.80;99.90;;;;;;5094329;28;20051;-63
2023/09/12 11:50:32;;;;;;;0.70;0.70;;;22.20;99.90;;;;;;5094318;28;20097;-62
2023/09/12 11:53:03;;;;;;;2.08;1.30;;;22.00;99.90;;;;;;5094315;28;20047;-63
2023/09/12 11:55:51;;;;;;;1.65;1.00;;;22.10;99.90;;;;;;5094146;28;20052;-62
2023/09/12 11:58:17;;;;;;;0.85;0.85;;;22.00;99.90;;;;;;5093295;28;20460;-63
2023/09/12 12:00:49;;;;;;;1.30;1.20;;;22.30;99.90;;;;;;5094083;28;20048;-63
2023/09/12 12:03:15;;;;;;;0.88;0.88;;;22.20;99.90;;;;;;5094111;28;20383;-62
2023/09/12 12:05:42;;;;;;;0.57;0.55;;;22.40;99.90;;;;;;5093547;28;20063;-62
2023/09/12 12:08:11;;;;;;;1.33;1.13;;;22.90;99.90;;;;;;5093912;28;20125;-62
2023/09/12 12:10:39;;;;;;;0.68;0.68;;;23.10;99.90;;;;;;5093854;28;20472;-61
2023/09/12 12:13:05;;;;;;;1.02;0.93;;;22.90;99.90;;;;;;5093329;28;20052;-62
2023/09/12 12:15:32;;;;;;;0.60;0.60;;;23.40;99.90;;;;;;5093798;28;20052;-63
2023/09/12 12:17:58;;;;;;;0.75;0.75;;;23.00;99.90;;;;;;5093785;28;20097;-63
2023/09/12 12:20:24;;;;;;;1.10;1.02;;;23.10;99.90;;;;;;5093657;28;20426;-62
2023/09/12 12:22:52;;;;;;;1.15;0.68;;;23.20;99.90;;;;;;5093542;28;20048;-62
2023/09/12 12:25:18;;;;;;;3.90;1.52;;;22.90;99.90;;;;;;5093607;28;20446;-62
2023/09/12 12:27:44;;;;;;;0.80;0.70;;;22.50;99.90;;;;;;5093570;28;20040;-62
2023/09/12 12:30:12;;;;;;;0.40;0.40;;;22.40;99.90;;;;;;5093497;28;20820;-62
2023/09/12 12:32:52;;;;;;;1.40;1.30;;;22.70;99.90;;;;;;5093548;28;20389;-62
2023/09/12 12:35:21;;;;;;;1.65;0.85;;;22.70;99.90;;;;;;5093437;28;20051;-63
2023/09/12 12:37:51;;;;;;;0.75;0.68;;;22.60;99.90;;;;;;5093376;28;20055;-62
2023/09/12 12:40:17;;;;;;;1.17;0.80;;;23.00;99.90;;;;;;5093286;28;20395;-62
2023/09/12 12:42:46;;;;;;;0.70;0.70;;;22.60;99.90;;;;;;5093364;28;20058;-63
2023/09/12 12:45:16;;;;;;;0.65;0.63;;;23.00;99.90;;;;;;5093378;28;20043;-62
2023/09/12 12:47:42;;;;;;;0.50;0.43;;;22.80;99.90;;;;;;5093478;28;20533;-62
2023/09/12 12:50:12;;;;;;;0.28;0.28;;;22.60;99.90;;;;;;5092888;28;20488;-63